createdAt,value
2022-12-03T00:03:37.114Z,22.77
2022-12-03T00:07:39.830Z,19.20
2022-12-03T00:11:41.398Z,24.15
2022-12-03T00:15:43.043Z,22.58
2022-12-03T00:19:45.933Z,24.42
2022-12-03T00:27:50.377Z,24.60
2022-12-03T00:31:52.038Z,21.83
2022-12-03T00:35:53.636Z,25.90
2022-12-03T00:39:55.204Z,22.08
2022-12-03T00:43:57.866Z,21.00
2022-12-03T00:47:59.534Z,24.35
2022-12-03T00:52:01.149Z,22.73
2022-12-03T00:56:02.751Z,23.15
2022-12-03T01:00:06.114Z,23.95
2022-12-03T01:04:07.825Z,24.40
2022-12-03T01:08:09.497Z,22.38
2022-12-03T01:12:12.073Z,25.88
2022-12-03T01:16:13.857Z,22.23
2022-12-03T01:20:15.446Z,25.50
2022-12-03T01:24:18.233Z,24.38
2022-12-03T01:28:19.782Z,19.20
2022-12-03T01:32:21.497Z,22.85
2022-12-03T01:36:23.264Z,24.70
2022-12-03T01:40:25.043Z,23.90
2022-12-03T01:44:31.462Z,22.45
2022-12-03T01:48:35.705Z,23.98
2022-12-03T01:52:39.265Z,28.25
2022-12-03T01:56:40.855Z,21.65
2022-12-03T02:00:42.422Z,22.52
2022-12-03T02:04:44.059Z,23.83
2022-12-03T02:08:46.792Z,22.83
2022-12-03T02:13:14.771Z,25.75
2022-12-03T02:17:17.445Z,27.10
2022-12-03T02:21:49.407Z,24.15
2022-12-03T02:25:50.986Z,24.13
2022-12-03T02:29:52.829Z,27.45
2022-12-03T02:33:54.695Z,27.63
2022-12-03T02:38:02.531Z,24.10
2022-12-03T02:42:23.712Z,26.65
2022-12-03T02:46:25.408Z,27.58
2022-12-03T02:50:31.731Z,30.10
2022-12-03T02:54:33.387Z,27.27
2022-12-03T02:58:35.384Z,27.88
2022-12-03T03:02:39.130Z,35.27
2022-12-03T03:06:40.824Z,29.10
2022-12-03T03:10:43.671Z,28.52
2022-12-03T03:18:47.414Z,29.65
2022-12-03T03:22:49.011Z,27.80
2022-12-03T03:26:50.977Z,28.35
2022-12-03T03:30:53.192Z,25.93
2022-12-03T03:34:56.037Z,27.73
2022-12-03T03:43:00.254Z,26.83
2022-12-03T03:47:02.435Z,24.10
2022-12-03T03:51:09.001Z,27.08
2022-12-03T03:55:11.694Z,27.80
2022-12-03T03:59:14.065Z,27.45
2022-12-03T04:03:15.710Z,30.17
2022-12-03T04:07:17.700Z,29.67
2022-12-03T04:11:37.968Z,23.00
2022-12-03T04:15:39.576Z,35.05
2022-12-03T04:19:41.140Z,24.92
2022-12-03T04:23:42.765Z,26.80
2022-12-03T04:28:03.671Z,29.45
2022-12-03T04:32:23.760Z,27.60
2022-12-03T04:36:25.310Z,28.10
2022-12-03T04:40:45.587Z,33.13
2022-12-03T04:44:47.195Z,26.33
2022-12-03T04:48:48.771Z,26.92
2022-12-03T04:52:50.385Z,26.48
2022-12-03T04:56:52.027Z,29.33
2022-12-03T05:00:53.668Z,27.95
2022-12-03T05:04:55.503Z,30.10
2022-12-03T05:08:57.316Z,27.13
2022-12-03T05:12:58.986Z,26.58
2022-12-03T05:17:00.632Z,31.98
2022-12-03T05:21:02.283Z,29.73
2022-12-03T05:25:04.280Z,27.60
2022-12-03T05:29:05.879Z,30.50
2022-12-03T05:33:07.566Z,27.70
2022-12-03T05:37:09.175Z,28.15
2022-12-03T05:41:29.226Z,29.15
2022-12-03T05:45:36.916Z,34.17
2022-12-03T05:49:38.505Z,28.98
2022-12-03T05:53:40.092Z,27.27
2022-12-03T05:57:42.044Z,27.58
2022-12-03T06:01:43.663Z,29.47
2022-12-03T06:05:45.347Z,24.50
2022-12-03T06:09:46.938Z,27.00
2022-12-03T06:13:48.583Z,30.23
2022-12-03T06:17:50.346Z,26.17
2022-12-03T06:21:51.926Z,26.35
2022-12-03T06:25:53.490Z,25.25
2022-12-03T06:29:55.115Z,24.60
2022-12-03T06:33:57.010Z,29.40
2022-12-03T06:37:58.754Z,26.95
2022-12-03T06:42:00.363Z,29.27
2022-12-03T06:46:02.018Z,24.40
2022-12-03T06:50:05.052Z,25.65
2022-12-03T06:54:06.914Z,26.35
2022-12-03T06:58:08.531Z,27.77
2022-12-03T07:02:11.847Z,29.73
2022-12-03T07:06:14.082Z,23.25
2022-12-03T07:10:15.796Z,24.92
2022-12-03T07:14:21.362Z,30.02
2022-12-03T07:18:22.982Z,26.63
2022-12-03T07:22:25.089Z,23.10
2022-12-03T07:26:26.867Z,28.37
2022-12-03T07:30:28.940Z,27.60
2022-12-03T07:34:31.929Z,21.95
2022-12-03T07:38:33.468Z,22.45
2022-12-03T07:42:35.094Z,24.08
2022-12-03T07:46:36.755Z,24.75
2022-12-03T07:50:38.488Z,22.40
2022-12-03T07:54:40.083Z,28.80
2022-12-03T07:58:41.638Z,24.05
2022-12-03T08:02:43.355Z,28.65
2022-12-03T08:06:45.699Z,22.80
2022-12-03T08:10:47.255Z,26.33
2022-12-03T08:14:49.296Z,23.60
2022-12-03T08:18:54.265Z,22.27
2022-12-03T08:22:57.363Z,25.27
2022-12-03T08:26:59.414Z,24.48
2022-12-03T08:31:07.534Z,25.73
2022-12-03T08:35:18.518Z,23.95
2022-12-03T08:39:33.749Z,25.35
2022-12-03T08:43:42.036Z,26.75
2022-12-03T08:47:43.677Z,25.08
2022-12-03T08:51:45.268Z,23.15
2022-12-03T08:55:51.743Z,24.17
2022-12-03T09:00:20.545Z,21.70
2022-12-03T09:04:25.307Z,23.20
2022-12-03T09:08:26.964Z,23.13
2022-12-03T09:12:28.638Z,25.00
2022-12-03T09:16:30.335Z,25.65
2022-12-03T09:20:32.592Z,23.25
2022-12-03T09:24:34.252Z,24.30
2022-12-03T09:28:35.829Z,23.20
2022-12-03T09:32:37.463Z,28.13
2022-12-03T09:36:39.292Z,22.83
2022-12-03T09:40:41.412Z,21.42
2022-12-03T09:44:43.563Z,22.33
2022-12-03T09:48:45.331Z,26.00
2022-12-03T09:52:49.901Z,22.52
2022-12-03T09:56:53.624Z,24.33
2022-12-03T10:00:56.635Z,23.65
2022-12-03T10:04:58.666Z,28.52
2022-12-03T10:09:00.903Z,23.00
2022-12-03T10:13:03.599Z,21.23
2022-12-03T10:17:06.152Z,23.48
2022-12-03T10:21:22.917Z,23.30
2022-12-03T10:25:24.517Z,24.00
2022-12-03T10:29:34.383Z,21.95
2022-12-03T10:33:39.031Z,24.38
2022-12-03T10:38:06.756Z,25.48
2022-12-03T10:42:18.604Z,25.23
2022-12-03T10:46:23.398Z,27.27
2022-12-03T10:50:25.222Z,26.23
2022-12-03T10:54:28.924Z,25.02
2022-12-03T10:58:35.121Z,25.15
2022-12-03T11:02:37.361Z,24.23
2022-12-03T11:06:38.951Z,21.23
2022-12-03T11:10:40.560Z,25.88
2022-12-03T11:14:54.688Z,28.88
2022-12-03T11:18:56.502Z,28.30
2022-12-03T11:22:58.766Z,25.80
2022-12-03T11:27:00.323Z,31.75
2022-12-03T11:31:09.780Z,30.10
2022-12-03T11:35:23.558Z,32.78
2022-12-03T11:39:50.473Z,35.28
2022-12-03T11:43:52.086Z,31.63
2022-12-03T11:47:59.425Z,30.77
2022-12-03T11:52:11.974Z,31.95
2022-12-03T11:56:20.151Z,26.13
2022-12-03T12:00:24.482Z,32.35
2022-12-03T12:04:29.634Z,29.65
2022-12-03T12:08:32.107Z,30.08
2022-12-03T12:12:47.156Z,31.60
2022-12-03T12:16:55.221Z,29.38
2022-12-03T12:21:35.531Z,30.85
2022-12-03T12:25:40.315Z,30.95
2022-12-03T12:29:44.193Z,29.27
2022-12-03T12:34:01.623Z,31.17
2022-12-03T12:38:15.339Z,29.43
2022-12-03T12:42:30.176Z,27.95
2022-12-03T12:46:48.457Z,28.02
2022-12-03T12:50:58.561Z,30.33
2022-12-03T12:55:04.644Z,30.48
2022-12-03T12:59:20.691Z,31.98
2022-12-03T13:03:27.473Z,28.30
2022-12-03T13:07:29.459Z,29.65
2022-12-03T13:11:41.501Z,29.13
2022-12-03T13:15:52.293Z,30.00
2022-12-03T13:20:06.719Z,35.42
2022-12-03T13:24:36.172Z,31.90
2022-12-03T13:28:37.800Z,28.17
2022-12-03T13:32:42.722Z,28.83
2022-12-03T13:36:47.486Z,23.35
2022-12-03T13:41:02.519Z,26.55
2022-12-03T13:49:29.127Z,25.42
2022-12-03T13:53:38.452Z,27.83
2022-12-03T13:57:41.190Z,29.98
2022-12-03T14:01:44.144Z,31.15
2022-12-03T14:05:45.895Z,27.00
2022-12-03T14:09:48.015Z,25.67
2022-12-03T14:13:49.555Z,25.77
2022-12-03T14:17:51.147Z,28.60
2022-12-03T14:21:52.811Z,26.02
2022-12-03T14:25:54.483Z,28.42
2022-12-03T14:29:56.421Z,29.88
2022-12-03T14:33:58.290Z,32.30
2022-12-03T14:37:59.996Z,28.73
2022-12-03T14:42:13.798Z,27.13
2022-12-03T14:46:15.388Z,25.33
2022-12-03T14:50:17.457Z,27.27
2022-12-03T14:54:19.279Z,24.35
2022-12-03T14:58:20.962Z,27.77
2022-12-03T15:02:22.782Z,33.67
2022-12-03T15:06:24.462Z,25.63
2022-12-03T15:10:26.018Z,28.42
2022-12-03T15:14:28.062Z,29.40
2022-12-03T15:18:31.175Z,30.33
2022-12-03T15:22:32.803Z,29.13
2022-12-03T15:26:34.381Z,34.20
2022-12-03T15:30:36.243Z,29.90
2022-12-03T15:34:37.863Z,30.33
2022-12-03T15:38:39.533Z,32.63
2022-12-03T15:42:41.082Z,33.45
2022-12-03T15:46:42.807Z,33.75
2022-12-03T15:50:44.440Z,32.22
2022-12-03T15:54:46.470Z,35.22
2022-12-03T15:58:48.073Z,34.10
2022-12-03T16:02:53.137Z,36.95
2022-12-03T16:06:54.945Z,34.47
2022-12-03T16:10:56.562Z,35.08
2022-12-03T16:14:58.416Z,32.33
2022-12-03T16:19:00.092Z,38.25
2022-12-03T16:23:01.633Z,33.50
2022-12-03T16:27:04.016Z,32.97
2022-12-03T16:31:06.123Z,37.65
2022-12-03T16:35:08.092Z,36.07
2022-12-03T16:39:09.753Z,34.70
2022-12-03T16:43:11.403Z,34.15
2022-12-03T16:47:13.023Z,34.28
2022-12-03T16:51:14.971Z,33.30
2022-12-03T16:55:16.635Z,30.58
2022-12-03T16:59:18.193Z,41.65
2022-12-03T17:03:20.785Z,52.42
2022-12-03T17:07:22.443Z,38.20
2022-12-03T17:11:24.079Z,52.03
2022-12-03T17:15:25.695Z,59.47
2022-12-03T17:19:28.013Z,40.92
2022-12-03T17:23:29.614Z,36.67
2022-12-03T17:27:31.275Z,37.00
2022-12-03T17:31:38.437Z,34.78
2022-12-03T17:35:43.529Z,38.63
2022-12-03T17:39:45.142Z,30.73
2022-12-03T17:43:46.734Z,33.17
2022-12-03T17:47:48.279Z,32.22
2022-12-03T17:51:49.894Z,29.10
2022-12-03T17:55:51.449Z,34.80
2022-12-03T17:59:53.196Z,31.55
2022-12-03T18:03:55.166Z,32.13
2022-12-03T18:07:56.918Z,32.83
2022-12-03T18:11:58.807Z,36.45
2022-12-03T18:16:00.489Z,33.20
2022-12-03T18:20:02.282Z,29.02
2022-12-03T18:24:04.456Z,32.65
2022-12-03T18:28:06.057Z,37.00
2022-12-03T18:32:27.022Z,31.75
2022-12-03T18:36:35.973Z,32.60
2022-12-03T18:40:38.314Z,31.27
2022-12-03T18:44:45.013Z,41.63
2022-12-03T18:48:50.983Z,30.77
2022-12-03T18:52:52.558Z,31.70
2022-12-03T18:56:54.279Z,32.20
2022-12-03T19:00:55.970Z,31.58
2022-12-03T19:04:57.733Z,28.25
2022-12-03T19:08:59.415Z,29.58
2022-12-03T19:13:01.097Z,27.42
2022-12-03T19:17:03.705Z,28.90
2022-12-03T19:21:10.447Z,29.40
2022-12-03T19:25:12.055Z,27.40
2022-12-03T19:29:13.623Z,26.10
2022-12-03T19:33:18.124Z,28.17
2022-12-03T19:37:20.205Z,27.30
2022-12-03T19:41:23.020Z,29.20
2022-12-03T19:45:24.624Z,22.83
2022-12-03T19:49:26.550Z,25.75
2022-12-03T19:53:30.256Z,24.00
2022-12-03T19:57:32.039Z,29.98
2022-12-03T20:01:36.236Z,25.80
2022-12-03T20:05:40.609Z,23.08
2022-12-03T20:09:42.245Z,21.52
2022-12-03T20:13:44.818Z,23.50
2022-12-03T20:17:46.426Z,26.30
2022-12-03T20:21:48.025Z,23.98
2022-12-03T20:25:49.651Z,27.40
2022-12-03T20:29:51.413Z,24.02
2022-12-03T20:33:56.362Z,23.83
2022-12-03T20:37:57.888Z,23.42
2022-12-03T20:41:59.503Z,20.88
2022-12-03T20:46:13.447Z,22.23
2022-12-03T20:50:15.177Z,24.08
2022-12-03T20:54:16.816Z,23.95
2022-12-03T20:58:18.415Z,24.40
2022-12-03T21:02:20.258Z,20.40
2022-12-03T21:06:24.152Z,24.00
2022-12-03T21:10:44.848Z,18.70
2022-12-03T21:14:46.529Z,17.00
2022-12-03T21:18:48.112Z,22.50
2022-12-03T21:22:50.255Z,16.40
2022-12-03T21:26:52.050Z,16.20
2022-12-03T21:30:53.730Z,15.10
2022-12-03T21:34:55.312Z,14.45
2022-12-03T21:38:57.004Z,17.30
2022-12-03T21:42:58.640Z,18.08
2022-12-03T21:47:11.700Z,14.25
2022-12-03T21:51:17.143Z,16.52
2022-12-03T21:55:18.987Z,17.20
2022-12-03T21:59:20.640Z,13.77
2022-12-03T22:03:22.290Z,13.82
2022-12-03T22:07:24.033Z,12.38
2022-12-03T22:11:25.616Z,16.77
2022-12-03T22:15:27.398Z,14.10
2022-12-03T22:19:29.060Z,16.45
2022-12-03T22:23:31.589Z,15.98
2022-12-03T22:27:33.204Z,14.00
2022-12-03T22:31:34.842Z,17.80
2022-12-03T22:35:36.436Z,16.25
2022-12-03T22:39:37.988Z,14.50
2022-12-03T22:43:39.687Z,17.27
2022-12-03T22:47:41.259Z,15.90
2022-12-03T22:51:46.221Z,16.80
2022-12-03T22:55:55.848Z,16.20
2022-12-03T22:59:57.561Z,17.00
2022-12-03T23:04:00.176Z,18.58
2022-12-03T23:08:02.014Z,14.27
2022-12-03T23:12:04.036Z,18.05
2022-12-03T23:16:06.420Z,18.88
2022-12-03T23:20:09.781Z,16.95
2022-12-03T23:24:11.435Z,16.50
2022-12-03T23:28:13.064Z,14.57
2022-12-03T23:32:14.715Z,17.88
2022-12-03T23:36:16.810Z,15.15
2022-12-03T23:40:18.651Z,13.33
2022-12-03T23:44:20.382Z,14.27
2022-12-03T23:48:21.908Z,16.25
2022-12-03T23:52:23.634Z,14.73
2022-12-03T23:56:28.385Z,16.45
